Aviation Digital Data Service (ADDS)

Output produced by METARs form (0102 UTC 24 May 2022)
found at http://www.aviationweather.gov/metar/data/
 
RCTP 240030Z 05006KT 9999 -DZ SCT005 BKN008 BKN015 23/22 Q1012 NOSIG RMK A2989
TAF RCTP 232300Z 2400/2506 03005KT 9999 SCT005 BKN011 
     TEMPO 2400/2406 04010KT SCT003 BKN007 
     TEMPO 2406/2412 5000 RA SCT003 BKN006 
     TEMPO 2412/2418 04010KT FEW010 BKN020 
     TEMPO 2418/2424 4000 RA BR SCT002 BKN005 
     TEMPO 2500/2506 3500 RA BR SCT002 BKN004
       
RCMQ 240040Z 35003KT 6000 FEW006 SCT025 BKN100 26/23 Q1011 NOSIG RMK A2986 APCH CLD FEW006
TAF RCMQ 232300Z 2400/2424 36004KT 4000 BR SCT004 BKN010 BKN030 TX26/2405Z
TN21/2421Z 
     BECMG 2401/2404 36008KT 8000 SCT006 BKN012 BKN040 
     BECMG 2405/2408 5000 -RA BR SCT004 BKN008 
     BECMG 2413/2416 36004KT 3200 -RA BR 
     TEMPO 2418/2423 1600 -RA BR
       
RCFN 240030Z 03001KT 8000 -DZ FEW008 SCT012 BKN022 25/25 Q1012 NOSIG RMK A2990
TAF RCFN 232300Z 2400/2424 14005KT 7000 FEW015 BKN032 
     TEMPO 2400/2404 03005KT 4500 RA SCT008 BKN015 
     TEMPO 2404/2410 18005KT 5000 RA FEW010 BKN018 
     BECMG 2410/2412 01005KT 
     TEMPO 2420/2424 32005KT
       
RCKH 240030Z 18010KT 150V210 9999 FEW013 SCT028 BKN200 29/24 Q1010 NOSIG RMK A2984
TAF RCKH 232300Z 2400/2506 18005KT 9999 FEW015 BKN032 
     TEMPO 2402/2406 18010KT 5000 RA FEW010 BKN017 
     TEMPO 2408/2412 24007KT 5000 RA FEW010 BKN017 
     TEMPO 2418/2424 09005KT FEW007 BKN015 
     TEMPO 2503/2506 27010KT
       
RCSS 240045Z 09006KT 9000 -DZ FEW008 SCT012 BKN045 23/22 Q1011 NOSIG RMK A2988
TAF RCSS 232300Z 2400/2424 09005KT 9999 FEW015 BKN032 
     TEMPO 2400/2406 27005KT FEW005 BKN014 
     TEMPO 2410/2416 FEW010 BKN017 
     TEMPO 2418/2424 27005KT 4000 RA FEW010 BKN014
       
RCNN 240053Z 15004KT 9000 -RA VCTS FEW012 FEW014CB BKN025 BKN050 27/24 Q1010 NOSIG RMK A2985 TS W STNRY
TAF RCNN 232300Z 2400/2424 12004KT 8000 -RA FEW012 BKN040 BKN100 TX29/2405Z
TN23/2420Z 
     BECMG 2401/2403 18006KT 9999 FEW012 SCT025 BKN060 
     TEMPO 2404/2409 7000 -RA FEW010 BKN020 BKN040 
     BECMG 2410/2413 22004KT 5000 -RA BR FEW010 BKN020 BKN040 
     TEMPO 2414/2419 8000 FEW012 SCT025 BKN050 
     BECMG 2420/2423 12006KT 9999 FEW012 SCT030 BKN060